Time;durP1;ratioP1;P1;durP2;ratioP2;P2;SDS_P1;SDS_P2;PMS_P1;PMS_P2;Temp;Humidity;BMP_temperature;BMP_pressure;BME280_temperature;BME280_humidity;BME280_pressure;Samples;Min_cycle;Max_cycle;Signal;HPM_P1;HPM_P2
2022/03/09 00:02:14;;;;;;;30.67;14.93;;;;;;;1.43;74.32;101589.00;5045550;28;20048;-68
2022/03/09 00:04:40;;;;;;;27.52;13.65;;;;;;;1.40;74.31;101591.41;5045260;28;20079;-67
2022/03/09 00:07:05;;;;;;;38.30;16.20;;;;;;;1.28;74.55;101584.00;5045455;28;20021;-67
2022/03/09 00:09:31;;;;;;;36.65;16.73;;;;;;;1.28;74.64;101581.44;5044900;28;20053;-67
2022/03/09 00:11:56;;;;;;;34.53;14.02;;;;;;;1.31;74.53;101585.88;5045054;28;20033;-68
2022/03/09 00:14:22;;;;;;;30.95;14.95;;;;;;;1.22;74.36;101583.72;5045011;28;20033;-67
2022/03/09 00:16:47;;;;;;;37.45;15.48;;;;;;;1.06;74.57;101580.41;5045251;28;20025;-68
2022/03/09 00:19:13;;;;;;;34.70;16.30;;;;;;;1.14;74.95;101593.56;5045295;28;20077;-68
2022/03/09 00:21:38;;;;;;;31.10;14.32;;;;;;;1.09;75.13;101585.66;5045252;28;20052;-67
2022/03/09 00:24:04;;;;;;;36.55;15.05;;;;;;;1.20;75.01;101599.00;5044907;28;20029;-67
2022/03/09 00:26:30;;;;;;;30.90;14.48;;;;;;;1.18;75.06;101595.47;5044823;28;20021;-68
2022/03/09 00:28:55;;;;;;;28.08;14.23;;;;;;;1.17;75.25;101588.59;5044886;28;20096;-69
2022/03/09 00:31:20;;;;;;;29.50;13.65;;;;;;;1.23;75.07;101591.47;5044794;28;20044;-68
2022/03/09 00:33:47;;;;;;;33.47;15.40;;;;;;;1.33;74.94;101604.69;5044964;28;20021;-68
2022/03/09 00:36:12;;;;;;;32.08;14.10;;;;;;;1.33;75.05;101604.69;5045002;28;20052;-67
2022/03/09 00:38:37;;;;;;;37.20;16.00;;;;;;;1.27;74.93;101607.84;5044901;28;20021;-67
2022/03/09 00:41:03;;;;;;;34.47;17.25;;;;;;;1.32;74.72;101614.09;5044741;28;20021;-67
2022/03/09 00:43:28;;;;;;;34.25;17.50;;;;;;;1.33;74.91;101600.47;5045141;28;20026;-67
2022/03/09 00:45:54;;;;;;;31.38;14.93;;;;;;;1.40;74.74;101611.00;5045169;28;20470;-67
2022/03/09 00:48:19;;;;;;;29.50;14.82;;;;;;;1.42;74.60;101610.25;5044934;28;20053;-67
2022/03/09 00:50:45;;;;;;;27.55;14.18;;;;;;;1.38;74.58;101605.81;5044691;28;20029;-67
2022/03/09 00:53:11;;;;;;;36.75;17.08;;;;;;;1.36;74.64;101612.53;5044678;28;20109;-67
2022/03/09 00:55:36;;;;;;;30.70;15.77;;;;;;;1.35;74.55;101614.22;5044676;28;20507;-68
2022/03/09 00:58:02;;;;;;;29.75;16.38;;;;;;;1.38;74.72;101615.16;5026914;28;20025;-67
2022/03/09 01:00:27;;;;;;;32.63;16.30;;;;;;;1.38;74.59;101603.25;5047066;28;20032;-67
2022/03/09 01:02:53;;;;;;;36.90;18.05;;;;;;;1.41;74.56;101612.75;5048584;28;20025;-67
2022/03/09 01:05:18;;;;;;;32.03;17.95;;;;;;;1.43;74.60;101614.59;5048628;28;20037;-68
2022/03/09 01:07:43;;;;;;;34.35;16.98;;;;;;;1.43;74.51;101612.03;5048886;28;20049;-67
2022/03/09 01:10:10;;;;;;;32.03;16.30;;;;;;;1.45;74.52;101612.97;5048247;28;20025;-67
2022/03/09 01:12:35;;;;;;;26.85;14.57;;;;;;;1.42;74.24;101610.25;5048607;28;20167;-67
2022/03/09 01:15:01;;;;;;;35.92;18.65;;;;;;;1.34;74.18;101603.91;5030689;28;20026;-66
2022/03/09 01:17:26;;;;;;;30.90;15.93;;;;;;;1.30;74.33;101600.31;5048465;28;20044;-66
2022/03/09 01:19:53;;;;;;;35.40;16.98;;;;;;;1.31;74.46;101614.00;5048337;28;20039;-67
2022/03/09 01:22:19;;;;;;;36.47;16.35;;;;;;;1.27;74.36;101612.06;5048423;28;20480;-67
2022/03/09 01:24:45;;;;;;;38.40;16.15;;;;;;;1.30;74.42;101613.13;5048315;28;20025;-66
2022/03/09 01:27:10;;;;;;;37.65;17.25;;;;;;;1.26;74.48;101602.66;5048052;28;20026;-68
2022/03/09 01:29:36;;;;;;;28.85;15.82;;;;;;;1.32;74.36;101614.09;5048137;28;20025;-68
2022/03/09 01:32:02;;;;;;;35.15;15.90;;;;;;;1.29;74.44;101619.03;5047806;28;20025;-66
2022/03/09 01:34:27;;;;;;;29.13;15.73;;;;;;;1.28;74.38;101617.28;5047993;28;20090;-67
2022/03/09 01:36:52;;;;;;;32.58;17.20;;;;;;;1.32;74.11;101614.09;5030111;28;20049;-67
2022/03/09 01:39:20;;;;;;;36.03;16.33;;;;;;;1.34;74.16;101615.00;5030011;28;20034;-67
2022/03/09 01:41:45;;;;;;;32.08;16.25;;;;;;;1.36;74.13;101615.09;5047681;28;20039;-67
2022/03/09 01:44:12;;;;;;;36.17;15.25;;;;;;;1.35;74.27;101618.47;5048138;28;20053;-67
2022/03/09 01:46:38;;;;;;;31.38;16.00;;;;;;;1.34;74.27;101615.00;5047438;28;20084;-67
2022/03/09 01:49:05;;;;;;;29.55;15.23;;;;;;;1.40;74.19;101618.69;5047922;28;20030;-67
2022/03/09 01:51:37;;;;;;;30.52;15.10;;;;;;;1.39;74.05;101612.69;5047803;28;20025;-67
2022/03/09 01:54:04;;;;;;;29.55;14.50;;;;;;;1.33;74.19;101609.81;5047358;28;20228;-68
2022/03/09 01:56:30;;;;;;;32.67;14.43;;;;;;;1.38;74.18;101618.59;5047920;28;20021;-67
2022/03/09 01:58:55;;;;;;;35.08;15.07;;;;;;;1.39;74.17;101617.78;5048068;28;20165;-68
2022/03/09 02:01:21;;;;;;;34.08;15.30;;;;;;;1.44;74.11;101618.91;5047838;28;20560;-67
2022/03/09 02:03:47;;;;;;;34.55;15.93;;;;;;;1.41;74.19;101623.00;5047879;28;20059;-67
2022/03/09 02:06:12;;;;;;;29.60;14.60;;;;;;;1.39;74.13;101628.03;5047601;28;20017;-67
2022/03/09 02:11:22;;;;;;;34.70;15.77;;;;;;;1.34;74.33;101609.91;5047036;28;20055;-67
2022/03/09 02:13:48;;;;;;;29.67;16.17;;;;;;;1.42;74.14;101606.84;5047664;28;20085;-67
2022/03/09 02:16:14;;;;;;;34.92;15.02;;;;;;;1.42;74.15;101604.28;5047467;28;20032;-67
2022/03/09 02:18:40;;;;;;;32.55;15.30;;;;;;;1.41;74.29;101607.63;5047525;28;20033;-67
2022/03/09 02:21:10;;;;;;;41.63;15.10;;;;;;;1.45;74.04;101602.75;5047086;28;20022;-68
2022/03/09 02:23:35;;;;;;;37.10;16.77;;;;;;;1.48;73.97;101602.03;5047311;28;20017;-66
2022/03/09 02:26:01;;;;;;;39.60;15.85;;;;;;;1.44;74.29;101611.22;5047409;28;20025;-66
2022/03/09 02:28:26;;;;;;;28.48;14.35;;;;;;;1.38;74.08;101603.25;5047094;28;20029;-66
2022/03/09 02:30:55;;;;;;;28.95;15.00;;;;;;;1.34;74.26;101601.38;5046721;28;20025;-66
2022/03/09 02:33:21;;;;;;;35.67;16.10;;;;;;;1.32;74.43;101595.28;5046891;28;20060;-67
2022/03/09 02:35:46;;;;;;;32.75;16.23;;;;;;;1.31;74.49;101594.38;5046808;28;20033;-67
2022/03/09 02:38:11;;;;;;;39.90;16.35;;;;;;;1.37;74.33;101601.50;5047077;28;20022;-67
2022/03/09 02:40:37;;;;;;;33.47;16.73;;;;;;;1.36;74.43;101609.97;5046661;28;20025;-67
2022/03/09 02:43:02;;;;;;;33.63;16.80;;;;;;;1.35;74.04;101603.09;5046771;28;20103;-67
2022/03/09 02:45:28;;;;;;;29.20;13.05;;;;;;;1.26;74.00;101592.44;5046831;28;20049;-67
2022/03/09 02:47:53;;;;;;;33.03;15.95;;;;;;;1.19;74.09;101591.25;5046843;28;20496;-67
2022/03/09 02:50:18;;;;;;;40.65;18.77;;;;;;;1.16;74.32;101591.09;5028845;28;20440;-67
2022/03/09 02:52:44;;;;;;;46.80;21.92;;;;;;;1.17;74.29;101588.59;5046927;28;20073;-67
2022/03/09 02:55:11;;;;;;;38.03;19.30;;;;;;;1.14;74.13;101590.13;5046040;28;20052;-67
2022/03/09 02:57:37;;;;;;;45.38;23.15;;;;;;;1.01;74.26;101584.41;5046714;28;20032;-67
2022/03/09 03:00:09;;;;;;;57.10;22.30;;;;;;;1.07;74.22;101592.38;5046594;28;20077;-67
2022/03/09 03:02:36;;;;;;;50.00;23.88;;;;;;;1.10;74.21;101607.88;5046738;28;20045;-67
2022/03/09 03:05:01;;;;;;;54.22;24.27;;;;;;;1.15;74.35;101599.56;5046282;28;20025;-68
2022/03/09 03:07:27;;;;;;;52.47;24.00;;;;;;;1.20;74.35;101596.44;5046476;28;20032;-68
2022/03/09 03:09:52;;;;;;;50.08;23.90;;;;;;;1.26;74.23;101594.97;5046281;28;20114;-67
2022/03/09 03:12:17;;;;;;;52.28;23.67;;;;;;;1.29;74.08;101596.03;5046252;28;20032;-68
2022/03/09 03:14:42;;;;;;;55.70;24.98;;;;;;;1.31;73.74;101603.78;5046259;28;20048;-67
2022/03/09 03:17:08;;;;;;;54.83;24.60;;;;;;;1.27;73.58;101599.28;5046265;28;20369;-68
2022/03/09 03:19:34;;;;;;;52.90;26.40;;;;;;;1.23;73.52;101603.41;5046279;28;20033;-68
2022/03/09 03:22:00;;;;;;;52.88;25.27;;;;;;;1.20;73.77;101600.66;5045805;28;20052;-68
2022/03/09 03:24:27;;;;;;;55.88;26.27;;;;;;;1.17;73.70;101600.50;5045697;28;20021;-68
2022/03/09 03:26:52;;;;;;;54.70;23.67;;;;;;;1.20;73.89;101606.66;5027957;28;20477;-67
2022/03/09 03:29:18;;;;;;;46.10;21.77;;;;;;;1.16;73.89;101609.88;5046144;28;20029;-68
2022/03/09 03:31:43;;;;;;;49.72;22.38;;;;;;;1.12;73.78;101605.41;5045599;28;20053;-68
2022/03/09 03:34:08;;;;;;;47.05;20.83;;;;;;;1.14;73.84;101614.03;5046242;28;20025;-68
2022/03/09 03:36:34;;;;;;;43.17;20.40;;;;;;;1.03;73.92;101610.06;5045464;28;20049;-68
2022/03/09 03:38:59;;;;;;;39.22;19.65;;;;;;;0.97;74.04;101602.97;5045558;28;20033;-68
2022/03/09 03:41:24;;;;;;;47.33;21.08;;;;;;;0.98;74.06;101614.94;5045227;28;20093;-68
2022/03/09 03:43:50;;;;;;;43.22;21.10;;;;;;;1.04;74.18;101616.94;5045530;28;20026;-68
2022/03/09 03:46:15;;;;;;;42.22;20.58;;;;;;;1.06;74.01;101626.44;5045666;28;20029;-68
2022/03/09 03:48:40;;;;;;;49.28;23.75;;;;;;;1.09;73.72;101620.59;5046027;28;20030;-67
2022/03/09 03:51:06;;;;;;;54.40;24.85;;;;;;;1.07;73.70;101624.78;5045799;28;20021;-68
2022/03/09 03:53:31;;;;;;;55.03;24.35;;;;;;;1.05;73.70;101623.81;5027929;28;20456;-68
2022/03/09 03:55:57;;;;;;;48.05;22.35;;;;;;;1.02;73.80;101623.66;5045837;28;20025;-68
2022/03/09 03:58:23;;;;;;;48.63;21.05;;;;;;;0.99;73.69;101621.84;5045726;28;20105;-68
2022/03/09 04:00:48;;;;;;;41.28;19.92;;;;;;;0.90;73.76;101617.09;5045399;28;20025;-68
2022/03/09 04:03:13;;;;;;;41.30;20.88;;;;;;;0.88;73.75;101625.50;5045707;28;20095;-68
2022/03/09 04:05:39;;;;;;;42.22;21.00;;;;;;;0.80;73.97;101617.47;5045524;28;20055;-67
2022/03/09 04:08:04;;;;;;;41.25;20.80;;;;;;;0.84;73.92;101627.03;5045326;28;20056;-67
2022/03/09 04:10:29;;;;;;;40.38;19.95;;;;;;;0.82;73.92;101628.63;5044957;28;20021;-66
2022/03/09 04:13:00;;;;;;;43.60;21.65;;;;;;;0.76;74.04;101643.63;5045482;28;20025;-67
2022/03/09 04:15:25;;;;;;;44.28;19.98;;;;;;;0.76;74.16;101630.84;5045324;28;20021;-67
2022/03/09 04:17:50;;;;;;;43.42;20.10;;;;;;;0.77;74.11;101638.59;5045359;28;20035;-67
2022/03/09 04:20:16;;;;;;;50.05;20.08;;;;;;;0.71;74.06;101634.06;5044911;28;20112;-67
2022/03/09 04:22:42;;;;;;;47.33;22.38;;;;;;;0.74;74.20;101644.44;5045457;28;20049;-67
2022/03/09 04:25:09;;;;;;;42.63;20.42;;;;;;;0.72;74.26;101643.47;5045282;28;20569;-67
2022/03/09 04:27:35;;;;;;;39.22;19.63;;;;;;;0.77;74.20;101653.94;5045235;28;20025;-68
2022/03/09 04:30:00;;;;;;;46.05;22.02;;;;;;;0.72;74.25;101640.94;5045063;28;20036;-67
2022/03/09 04:32:26;;;;;;;42.38;19.83;;;;;;;0.75;74.20;101645.34;5044868;28;20053;-67
2022/03/09 04:34:54;;;;;;;39.45;21.35;;;;;;;0.76;74.28;101630.84;5045073;28;20029;-67
2022/03/09 04:37:20;;;;;;;37.83;16.27;;;;;;;0.74;74.20;101636.78;5044876;28;20053;-67
2022/03/09 04:39:46;;;;;;;33.17;15.20;;;;;;;0.71;74.10;101641.75;5044740;28;20025;-67
2022/03/09 04:42:11;;;;;;;53.58;21.23;;;;;;;0.65;74.23;101632.84;5044638;28;20037;-67
2022/03/09 04:44:37;;;;;;;40.22;19.65;;;;;;;0.61;74.38;101634.38;5045266;28;20047;-67
2022/03/09 04:47:02;;;;;;;38.28;19.25;;;;;;;0.55;74.51;101632.38;5045179;28;20025;-67
2022/03/09 04:49:28;;;;;;;46.72;22.35;;;;;;;0.53;74.61;101633.13;5045075;28;20056;-67
2022/03/09 04:51:53;;;;;;;44.60;20.17;;;;;;;0.50;74.91;101631.25;5044680;28;20101;-67
2022/03/09 04:54:18;;;;;;;46.70;18.90;;;;;;;0.45;74.92;101636.13;5044463;28;20250;-67
2022/03/09 04:56:44;;;;;;;44.45;20.92;;;;;;;0.49;75.14;101642.28;5044676;28;20097;-68
2022/03/09 04:59:09;;;;;;;49.33;21.52;;;;;;;0.49;75.05;101643.16;5044496;28;20025;-68
2022/03/09 05:01:34;;;;;;;47.05;20.60;;;;;;;0.56;74.85;101644.34;5044890;28;20030;-68
2022/03/09 05:04:00;;;;;;;46.00;19.73;;;;;;;0.52;74.81;101641.56;5044362;28;20021;-67
2022/03/09 05:06:25;;;;;;;48.60;20.75;;;;;;;0.55;74.75;101639.16;5044712;28;20037;-67
2022/03/09 05:08:50;;;;;;;51.40;20.63;;;;;;;0.48;75.00;101638.84;5044539;28;20028;-67
2022/03/09 05:11:16;;;;;;;40.15;18.88;;;;;;;0.48;75.12;101638.84;5044522;28;20085;-67
2022/03/09 05:13:41;;;;;;;43.25;19.95;;;;;;;0.45;75.20;101625.91;5044436;28;20060;-67
2022/03/09 05:16:07;;;;;;;46.85;20.75;;;;;;;0.54;75.21;101640.84;5044813;28;20486;-67
2022/03/09 05:18:33;;;;;;;50.65;21.70;;;;;;;0.56;75.27;101631.56;5044658;28;20024;-67
2022/03/09 05:20:58;;;;;;;50.95;22.75;;;;;;;0.64;75.31;101638.78;5044067;28;20017;-67
2022/03/09 05:23:23;;;;;;;39.47;19.85;;;;;;;0.70;74.92;101642.50;5044283;28;20029;-67
2022/03/09 05:25:49;;;;;;;52.40;19.70;;;;;;;0.70;74.71;101646.78;5043596;28;20021;-67
2022/03/09 05:28:14;;;;;;;49.20;21.73;;;;;;;0.61;74.65;101637.81;5044040;28;20034;-67
2022/03/09 05:30:39;;;;;;;48.90;21.45;;;;;;;0.59;74.92;101641.09;5044442;28;20048;-67
2022/03/09 05:33:05;;;;;;;39.35;18.45;;;;;;;0.59;74.76;101653.88;5026704;28;20025;-67
2022/03/09 05:35:30;;;;;;;44.65;21.17;;;;;;;0.55;74.52;101642.59;5044504;28;20022;-67
2022/03/09 05:37:55;;;;;;;44.10;20.40;;;;;;;0.48;74.80;101636.28;5044094;28;20460;-67
2022/03/09 05:40:21;;;;;;;47.38;22.02;;;;;;;0.47;74.72;101639.66;5043790;28;20021;-68
2022/03/09 05:42:46;;;;;;;45.45;20.35;;;;;;;0.48;74.76;101649.06;5044326;28;20081;-68
2022/03/09 05:45:12;;;;;;;38.47;20.13;;;;;;;0.45;74.49;101646.34;5044640;28;20105;-68
2022/03/09 05:47:37;;;;;;;47.67;20.98;;;;;;;0.45;74.71;101650.56;5048048;28;20024;-68
2022/03/09 05:50:03;;;;;;;42.22;19.77;;;;;;;0.43;74.82;101647.94;5047940;28;20025;-67
2022/03/09 05:52:29;;;;;;;45.15;19.65;;;;;;;0.41;74.61;101657.22;5047714;28;20033;-68
2022/03/09 05:54:54;;;;;;;49.13;19.88;;;;;;;0.39;74.80;101666.47;5047740;28;20027;-68
2022/03/09 05:57:20;;;;;;;43.85;19.52;;;;;;;0.40;74.79;101668.19;5047979;28;20108;-68
2022/03/09 05:59:46;;;;;;;43.10;21.05;;;;;;;0.39;74.66;101661.34;5047700;28;20021;-68
2022/03/09 06:02:12;;;;;;;43.72;19.75;;;;;;;0.31;74.64;101657.50;5047600;28;20091;-68
2022/03/09 06:04:37;;;;;;;43.50;19.55;;;;;;;0.25;74.76;101652.94;5047511;28;20021;-68
2022/03/09 06:07:03;;;;;;;44.45;20.13;;;;;;;0.21;74.72;101656.09;5047644;28;20025;-68
2022/03/09 06:09:28;;;;;;;43.92;18.23;;;;;;;0.22;74.91;101657.88;5047103;28;20056;-68
2022/03/09 06:11:54;;;;;;;40.65;19.70;;;;;;;0.15;75.08;101654.13;5047141;28;20017;-67
2022/03/09 06:14:20;;;;;;;42.83;19.30;;;;;;;0.21;75.16;101659.56;5047319;28;20342;-68
2022/03/09 06:16:47;;;;;;;40.45;19.02;;;;;;;0.19;75.10;101658.59;5047173;28;20053;-67
2022/03/09 06:19:16;;;;;;;44.38;22.02;;;;;;;0.20;75.13;101652.69;5047381;28;20088;-67
2022/03/09 06:21:41;;;;;;;37.78;16.50;;;;;;;0.22;74.97;101657.88;5046842;28;20056;-68
2022/03/09 06:24:07;;;;;;;38.15;17.55;;;;;;;0.22;74.87;101668.97;5046465;28;20021;-66
2022/03/09 06:26:32;;;;;;;37.72;14.73;;;;;;;0.18;74.84;101678.94;5046503;28;20029;-67
2022/03/09 06:28:58;;;;;;;40.17;19.80;;;;;;;0.12;74.83;101682.03;5046581;28;20044;-68
2022/03/09 06:31:23;;;;;;;46.08;21.38;;;;;;;0.09;75.25;101677.66;5028494;28;20405;-67
2022/03/09 06:33:48;;;;;;;41.33;20.10;;;;;;;0.13;75.36;101682.94;5028614;28;20128;-67
2022/03/09 06:36:15;;;;;;;40.28;20.15;;;;;;;0.16;75.26;101691.63;5044669;28;20045;-67
2022/03/09 06:38:41;;;;;;;47.40;21.48;;;;;;;0.14;75.23;101695.78;5046238;28;20028;-67
2022/03/09 06:41:06;;;;;;;50.80;22.60;;;;;;;0.24;75.26;101698.03;5044668;28;20085;-67
2022/03/09 06:43:31;;;;;;;41.63;20.08;;;;;;;0.35;75.25;101710.53;5046381;28;20031;-67
2022/03/09 06:45:57;;;;;;;39.85;20.58;;;;;;;0.36;75.08;101700.41;5046322;28;20037;-67
2022/03/09 06:48:22;;;;;;;43.00;19.35;;;;;;;0.42;75.10;101699.84;5046352;28;20030;-67
2022/03/09 06:50:48;;;;;;;46.78;21.65;;;;;;;0.51;75.20;101706.25;5045999;28;20031;-67
2022/03/09 06:53:13;;;;;;;46.78;21.85;;;;;;;0.56;74.63;101708.25;5046305;28;20025;-67
2022/03/09 06:55:39;;;;;;;45.72;22.30;;;;;;;0.51;74.59;101701.13;5045942;28;20096;-68
2022/03/09 06:58:04;;;;;;;54.97;22.80;;;;;;;0.48;74.71;101701.84;5045255;28;20021;-68
2022/03/09 07:00:29;;;;;;;46.55;23.27;;;;;;;0.46;74.53;101691.53;5046090;28;20025;-68
2022/03/09 07:02:56;;;;;;;47.92;23.42;;;;;;;0.45;74.48;101696.56;5046372;28;20036;-68
2022/03/09 07:05:23;;;;;;;40.70;17.17;;;;;;;0.43;74.65;101705.84;5046052;28;20030;-67
2022/03/09 07:07:48;;;;;;;48.45;21.05;;;;;;;0.30;74.35;101707.72;5046385;28;20025;-68
2022/03/09 07:10:14;;;;;;;40.28;19.70;;;;;;;0.26;74.65;101718.56;5045872;28;20049;-68
2022/03/09 07:12:44;;;;;;;39.17;18.98;;;;;;;0.24;74.50;101718.47;5046127;28;20026;-69
2022/03/09 07:15:10;;;;;;;45.33;22.00;;;;;;;0.19;74.52;101719.03;5046136;28;20385;-68
2022/03/09 07:17:36;;;;;;;38.67;20.25;;;;;;;0.19;74.62;101719.88;5046281;28;20639;-68
2022/03/09 07:20:01;;;;;;;39.38;17.05;;;;;;;0.18;74.39;101718.13;5046063;28;20022;-68
2022/03/09 07:22:27;;;;;;;43.80;20.95;;;;;;;0.13;74.45;101722.09;5046131;28;20032;-67
2022/03/09 07:24:52;;;;;;;47.00;23.27;;;;;;;0.11;74.69;101721.16;5045861;28;20436;-67
2022/03/09 07:27:17;;;;;;;42.55;21.05;;;;;;;0.11;74.80;101724.56;5046058;28;20025;-68
2022/03/09 07:29:43;;;;;;;46.25;20.40;;;;;;;0.16;75.01;101716.31;5045972;28;20079;-67
2022/03/09 07:32:14;;;;;;;52.53;22.90;;;;;;;0.11;74.54;101718.59;5045699;28;20029;-68
2022/03/09 07:34:40;;;;;;;60.60;26.50;;;;;;;0.10;74.75;101714.25;5028388;28;20025;-67
2022/03/09 07:37:05;;;;;;;54.78;24.45;;;;;;;0.17;74.62;101726.59;5027481;28;20043;-68
2022/03/09 07:39:31;;;;;;;45.50;21.60;;;;;;;0.29;74.97;101728.09;5045489;28;20025;-68
2022/03/09 07:41:57;;;;;;;43.40;22.38;;;;;;;0.44;75.11;101725.47;5045357;28;20021;-68
2022/03/09 07:44:23;;;;;;;47.88;22.27;;;;;;;0.53;74.74;101736.19;5045791;28;20034;-69
2022/03/09 07:46:49;;;;;;;49.67;22.27;;;;;;;0.56;74.40;101732.94;5045802;28;20457;-68
2022/03/09 07:49:14;;;;;;;48.10;23.00;;;;;;;0.60;74.24;101729.75;5045412;28;20033;-68
2022/03/09 07:51:40;;;;;;;47.47;20.52;;;;;;;0.57;74.02;101722.81;5045336;28;20021;-68
2022/03/09 07:54:06;;;;;;;49.33;21.35;;;;;;;0.62;73.83;101730.72;5044910;28;20044;-68
2022/03/09 07:56:32;;;;;;;41.97;15.77;;;;;;;0.59;73.78;101725.44;5045359;28;20163;-68
2022/03/09 07:58:57;;;;;;;42.45;18.88;;;;;;;0.55;73.62;101733.72;5045320;28;20022;-68
2022/03/09 08:01:23;;;;;;;51.08;21.75;;;;;;;0.52;73.68;101738.66;5044969;28;20025;-68
2022/03/09 08:03:48;;;;;;;41.67;20.90;;;;;;;0.52;73.75;101736.09;5045452;28;20033;-68
2022/03/09 08:06:14;;;;;;;43.35;18.73;;;;;;;0.57;74.10;101733.03;5045198;28;20025;-68
2022/03/09 08:08:40;;;;;;;48.92;22.27;;;;;;;0.69;74.08;101737.91;5044886;28;20025;-68
2022/03/09 08:11:05;;;;;;;51.13;21.55;;;;;;;0.66;73.96;101732.63;5045212;28;20032;-68
2022/03/09 08:13:30;;;;;;;42.53;19.92;;;;;;;0.72;74.02;101738.06;5045041;28;20087;-68
2022/03/09 08:15:56;;;;;;;40.22;17.98;;;;;;;0.77;73.66;101730.66;5027238;28;20018;-68
2022/03/09 08:18:21;;;;;;;40.35;19.52;;;;;;;0.72;72.89;101732.06;5044980;28;20021;-68
2022/03/09 08:20:46;;;;;;;45.90;22.88;;;;;;;0.63;73.03;101737.56;5027009;28;20097;-68
2022/03/09 08:23:12;;;;;;;43.03;19.30;;;;;;;0.49;73.14;101731.72;5045219;28;20040;-68
2022/03/09 08:25:37;;;;;;;39.92;18.67;;;;;;;0.51;73.44;101726.69;5044560;28;20021;-68
2022/03/09 08:28:03;;;;;;;46.65;21.80;;;;;;;0.58;73.33;101731.31;5044641;28;20021;-68
2022/03/09 08:30:28;;;;;;;36.10;18.38;;;;;;;0.56;72.95;101741.47;5044658;28;20048;-68
2022/03/09 08:32:54;;;;;;;40.05;19.83;;;;;;;0.42;72.74;101733.06;5044682;28;20515;-68
2022/03/09 08:35:19;;;;;;;38.47;17.73;;;;;;;0.43;73.54;101739.91;5045000;28;20049;-67
2022/03/09 08:37:45;;;;;;;38.53;17.25;;;;;;;0.57;73.16;101742.34;5044706;28;20075;-67
2022/03/09 08:40:11;;;;;;;28.67;12.98;;;;;;;0.58;73.05;101742.44;5044484;28;20505;-67
2022/03/09 08:42:37;;;;;;;30.73;15.50;;;;;;;0.65;72.39;101740.22;5044476;28;20075;-67
2022/03/09 08:45:03;;;;;;;35.47;17.52;;;;;;;0.80;73.32;101742.72;5044531;28;20017;-66
2022/03/09 08:47:28;;;;;;;24.20;13.15;;;;;;;1.57;73.23;101747.50;5044453;28;20065;-66
2022/03/09 08:49:54;;;;;;;28.95;14.48;;;;;;;2.03;70.93;101746.31;5044786;28;20022;-67
2022/03/09 08:52:19;;;;;;;25.17;13.00;;;;;;;2.11;70.50;101759.50;5044780;28;20022;-66
2022/03/09 08:54:44;;;;;;;24.25;11.38;;;;;;;2.42;69.93;101748.16;5043933;28;20029;-67
2022/03/09 08:57:10;;;;;;;17.50;10.70;;;;;;;2.39;68.94;101745.47;5044779;28;20025;-67
2022/03/09 08:59:35;;;;;;;22.42;13.20;;;;;;;2.26;68.73;101746.56;5044483;28;20022;-67
2022/03/09 09:02:01;;;;;;;25.98;13.52;;;;;;;2.59;70.41;101746.38;5044097;28;20026;-67
2022/03/09 09:04:26;;;;;;;23.27;12.90;;;;;;;3.27;69.85;101746.78;5026227;28;20112;-67
2022/03/09 09:06:52;;;;;;;26.15;13.38;;;;;;;3.86;69.31;101738.06;5043708;28;20026;-67
2022/03/09 09:09:17;;;;;;;25.17;12.40;;;;;;;4.77;69.56;101742.44;5044348;28;20105;-67
2022/03/09 09:11:44;;;;;;;20.40;14.23;;;;;;;5.90;68.50;101744.56;5044145;28;20087;-68
2022/03/09 09:14:09;;;;;;;20.65;11.07;;;;;;;6.87;65.79;101750.97;5044406;28;20037;-69
2022/03/09 09:16:35;;;;;;;19.17;12.70;;;;;;;7.18;63.76;101754.44;5044584;28;20021;-67
2022/03/09 09:19:01;;;;;;;14.18;9.80;;;;;;;7.51;63.54;101755.28;5044118;28;20045;-66
2022/03/09 09:21:26;;;;;;;23.42;11.45;;;;;;;7.90;60.82;101764.03;5046652;28;20093;-66
2022/03/09 09:23:52;;;;;;;16.33;10.63;;;;;;;7.78;57.92;101758.56;5047776;28;20022;-66
2022/03/09 09:26:20;;;;;;;14.57;9.73;;;;;;;7.50;57.61;101757.84;5047997;28;20049;-66
2022/03/09 09:28:45;;;;;;;15.85;9.35;;;;;;;7.13;58.90;101758.59;5047793;28;20085;-66
2022/03/09 09:31:11;;;;;;;16.48;9.80;;;;;;;7.04;58.71;101761.81;5047885;28;20026;-66
2022/03/09 09:33:36;;;;;;;13.10;8.93;;;;;;;7.25;56.66;101759.78;5047880;28;20025;-66
2022/03/09 09:36:02;;;;;;;12.02;8.88;;;;;;;7.10;57.70;101768.84;5029676;28;20053;-67
2022/03/09 09:38:28;;;;;;;16.42;9.27;;;;;;;7.12;58.65;101769.78;5047698;28;20025;-67
2022/03/09 09:40:55;;;;;;;10.02;7.88;;;;;;;7.30;59.04;101764.22;5047348;28;20021;-67
2022/03/09 09:43:21;;;;;;;12.45;8.05;;;;;;;7.68;59.12;101762.63;5047951;28;20427;-68
2022/03/09 09:45:47;;;;;;;12.07;8.45;;;;;;;7.99;57.92;101765.06;5047941;28;20453;-68
2022/03/09 09:48:13;;;;;;;13.73;8.88;;;;;;;8.13;56.40;101762.84;5047536;28;20081;-67
2022/03/09 09:50:39;;;;;;;12.98;7.97;;;;;;;8.04;54.61;101758.31;5047710;28;20461;-68
2022/03/09 09:53:07;;;;;;;14.02;8.05;;;;;;;7.79;55.75;101760.28;5047609;28;20032;-67
2022/03/09 09:55:33;;;;;;;14.30;7.15;;;;;;;7.82;56.65;101757.78;5047127;28;20063;-67
2022/03/09 09:58:00;;;;;;;12.70;6.82;;;;;;;7.91;54.54;101752.84;5047568;28;20521;-66
2022/03/09 10:00:26;;;;;;;15.82;7.05;;;;;;;7.87;54.29;101758.78;5047603;28;20081;-67
2022/03/09 10:02:52;;;;;;;14.85;7.10;;;;;;;7.83;52.44;101758.66;5047334;28;20028;-67
2022/03/09 10:05:19;;;;;;;12.25;7.30;;;;;;;7.61;53.41;101751.25;5047248;28;20021;-66
2022/03/09 10:08:03;;;;;;;11.60;7.63;;;;;;;7.73;53.79;101758.41;5047230;28;20047;-66
2022/03/09 10:10:29;;;;;;;10.27;7.15;;;;;;;7.75;51.68;101763.63;5047344;28;20037;-67
2022/03/09 10:13:11;;;;;;;12.75;7.45;;;;;;;7.61;51.52;101758.09;5047065;28;20104;-67
2022/03/09 10:15:37;;;;;;;;;;;;;;;7.62;50.83;101762.47;5047925;28;20036;-67
2022/03/09 10:18:14;;;;;;;15.43;7.07;;;;;;;7.69;51.19;101764.34;5029750;28;19909;-67
2022/03/09 10:20:40;;;;;;;9.77;6.25;;;;;;;7.97;51.27;101772.78;5047506;28;20061;-67
2022/03/09 10:23:05;;;;;;;11.25;6.90;;;;;;;8.45;49.74;101769.59;5045806;28;20028;-67
2022/03/09 10:25:31;;;;;;;11.73;6.68;;;;;;;8.17;48.77;101762.94;5047246;28;20140;-67
2022/03/09 10:27:57;;;;;;;9.60;6.13;;;;;;;7.78;49.35;101762.00;5047358;28;20465;-67
2022/03/09 10:30:29;;;;;;;9.95;7.03;;;;;;;7.20;48.62;101764.81;5047174;28;20028;-67
2022/03/09 10:32:56;;;;;;;;;;;;;;;6.59;49.99;101768.25;5047260;28;20096;-67
2022/03/09 10:35:31;;;;;;;11.00;7.00;;;;;;;6.52;52.01;101764.59;5047068;28;19915;-68
2022/03/09 10:38:00;;;;;;;12.02;6.97;;;;;;;6.98;50.58;101777.09;5046837;28;20124;-66
2022/03/09 10:40:27;;;;;;;11.75;7.35;;;;;;;7.10;50.20;101765.38;5046721;28;20481;-67
2022/03/09 10:43:18;;;;;;;11.23;5.88;;;;;;;7.42;49.04;101771.44;5046807;28;20036;-66
2022/03/09 10:46:03;;;;;;;12.37;6.60;;;;;;;7.30;47.63;101771.13;5047036;28;20036;-68
2022/03/09 10:48:46;;;;;;;10.75;6.35;;;;;;;7.00;47.65;101774.56;5046996;28;20025;-69
2022/03/09 10:51:24;;;;;;;13.35;8.35;;;;;;;6.86;48.07;101775.06;5028804;28;20459;-68
2022/03/09 10:53:49;;;;;;;15.48;7.07;;;;;;;7.31;48.06;101772.84;5046199;28;20076;-67
2022/03/09 10:56:19;;;;;;;13.55;7.85;;;;;;;7.71;47.39;101766.97;5046451;28;20026;-67
2022/03/09 10:58:45;;;;;;;10.15;5.25;;;;;;;7.91;45.61;101777.81;5046608;28;20436;-67
2022/03/09 11:01:16;;;;;;;10.07;6.47;;;;;;;7.67;45.88;101772.06;5046623;28;20021;-67
2022/03/09 11:03:43;;;;;;;13.63;4.63;;;;;;;7.59;45.80;101778.75;5046297;28;20028;-68
2022/03/09 11:06:10;;;;;;;9.70;5.82;;;;;;;7.57;46.60;101770.09;5046737;28;20060;-68
2022/03/09 11:08:37;;;;;;;11.82;7.13;;;;;;;7.97;46.60;101777.97;5045939;28;20028;-68
2022/03/09 11:11:03;;;;;;;14.07;6.53;;;;;;;8.60;46.20;101772.53;5046266;28;20021;-68
2022/03/09 11:13:34;;;;;;;10.07;6.15;;;;;;;8.90;44.54;101773.16;5046177;28;20021;-68
2022/03/09 11:16:01;;;;;;;12.10;7.20;;;;;;;8.87;43.22;101770.50;5046557;28;20021;-67
2022/03/09 11:18:28;;;;;;;11.90;7.03;;;;;;;8.57;44.10;101769.88;5045959;28;20436;-66